createdAt,value
2023-11-25T00:09:59.863Z,98827.00
2023-11-25T00:15:24.046Z,98854.00
2023-11-25T00:20:46.947Z,98855.00
2023-11-25T00:26:09.793Z,98865.00
2023-11-25T00:31:37.188Z,98872.00
2023-11-25T00:37:02.642Z,98880.00
2023-11-25T00:42:26.964Z,98889.00
2023-11-25T00:47:51.230Z,98899.00
2023-11-25T00:53:14.281Z,98897.00
2023-11-25T00:58:37.093Z,98905.00
2023-11-25T01:04:01.485Z,98913.00
2023-11-25T01:09:24.403Z,98928.00
2023-11-25T01:14:47.801Z,98931.00
2023-11-25T01:20:12.825Z,98938.00
2023-11-25T01:25:35.811Z,98944.00
2023-11-25T01:30:58.769Z,98956.00
2023-11-25T01:36:23.179Z,98958.00
2023-11-25T01:41:46.139Z,98968.00
2023-11-25T01:47:10.196Z,98950.00
2023-11-25T01:52:36.442Z,98977.00
2023-11-25T01:58:00.365Z,98959.00
2023-11-25T02:03:23.317Z,98976.00
2023-11-25T02:08:47.673Z,98981.00
2023-11-25T02:14:10.504Z,98979.00
2023-11-25T02:19:33.426Z,98978.00
2023-11-25T02:24:57.822Z,98995.00
2023-11-25T02:30:20.994Z,98999.00
2023-11-25T02:35:44.564Z,99003.00
2023-11-25T02:41:09.368Z,99006.00
2023-11-25T02:46:32.181Z,99017.00
2023-11-25T02:51:55.128Z,99022.00
2023-11-25T02:57:19.401Z,99031.00
2023-11-25T03:02:42.475Z,99048.00
2023-11-25T03:08:07.473Z,99054.00
2023-11-25T03:13:32.174Z,99059.00
2023-11-25T03:18:54.997Z,99065.00
2023-11-25T03:24:17.853Z,99064.00
2023-11-25T03:29:44.081Z,99065.00
2023-11-25T03:35:08.190Z,99066.00
2023-11-25T03:40:31.173Z,99063.00
2023-11-25T03:45:55.903Z,99073.00
2023-11-25T03:51:18.871Z,99077.00
2023-11-25T03:56:41.711Z,99087.00
2023-11-25T04:02:06.129Z,99097.00
2023-11-25T04:07:29.846Z,99095.00
2023-11-25T04:12:52.653Z,99096.00
2023-11-25T04:18:17.004Z,99103.00
2023-11-25T04:23:40.814Z,99109.00
2023-11-25T04:29:03.785Z,99120.00
2023-11-25T04:34:27.974Z,99123.00
2023-11-25T04:39:50.897Z,99124.00
2023-11-25T04:45:13.771Z,99135.00
2023-11-25T04:50:38.164Z,99140.00
2023-11-25T04:56:00.961Z,99143.00
2023-11-25T05:01:23.874Z,99148.00
2023-11-25T05:06:48.395Z,99147.00
2023-11-25T05:12:11.290Z,99150.00
2023-11-25T05:17:34.640Z,99160.00
2023-11-25T05:22:59.570Z,99159.00
2023-11-25T05:28:22.454Z,99179.00
2023-11-25T05:33:47.102Z,99179.00
2023-11-25T05:39:11.360Z,99193.00
2023-11-25T05:44:34.146Z,99203.00
2023-11-25T05:49:57.090Z,99204.00
2023-11-25T05:55:21.609Z,99211.00
2023-11-25T06:00:44.562Z,99214.00
2023-11-25T06:06:07.957Z,99212.00
2023-11-25T06:11:32.338Z,99223.00
2023-11-25T06:16:55.288Z,99232.00
2023-11-25T06:22:18.308Z,99225.00
2023-11-25T06:27:44.573Z,99240.00
2023-11-25T06:33:09.635Z,99255.00
2023-11-25T06:38:32.989Z,99257.00
2023-11-25T06:43:57.296Z,99274.00
2023-11-25T06:49:20.342Z,99275.00
2023-11-25T06:54:43.174Z,99282.00
2023-11-25T07:00:10.327Z,99283.00
2023-11-25T07:05:33.327Z,99304.00
2023-11-25T07:10:56.266Z,99304.00
2023-11-25T07:16:20.530Z,99316.00
2023-11-25T07:21:43.575Z,99318.00
2023-11-25T07:27:06.576Z,99320.00
2023-11-25T07:32:30.880Z,99318.00
2023-11-25T07:37:53.722Z,99331.00
2023-11-25T07:43:17.061Z,99335.00
2023-11-25T07:48:58.241Z,99339.00
2023-11-25T07:54:21.519Z,99345.00
2023-11-25T07:59:45.503Z,99353.00
2023-11-25T08:05:17.658Z,99362.00
2023-11-25T08:10:41.458Z,99343.00
2023-11-25T08:16:06.422Z,99363.00
2023-11-25T08:21:37.946Z,99345.00
2023-11-25T08:27:06.897Z,99331.00
2023-11-25T08:32:38.124Z,99347.00
2023-11-25T08:38:03.228Z,99364.00
2023-11-25T08:56:40.325Z,99393.00
2023-11-25T09:02:03.202Z,99391.00
2023-11-25T09:07:26.095Z,99409.00
2023-11-25T09:12:50.440Z,99404.00
2023-11-25T09:18:13.505Z,99416.00
2023-11-25T09:23:36.508Z,99431.00
2023-11-25T09:29:01.036Z,99430.00
2023-11-25T09:34:24.042Z,99428.00
2023-11-25T09:39:46.974Z,99446.00
2023-11-25T09:45:12.781Z,99441.00
2023-11-25T09:50:36.425Z,99449.00
2023-11-25T09:56:03.557Z,99448.00
2023-11-25T10:01:29.048Z,99452.00
2023-11-25T10:06:53.936Z,99448.00
2023-11-25T10:12:19.140Z,99459.00
2023-11-25T10:17:44.993Z,99468.00
2023-11-25T10:23:08.043Z,99472.00
2023-11-25T10:28:35.462Z,99469.00
2023-11-25T10:34:04.138Z,99472.00
2023-11-25T10:39:27.495Z,99468.00
2023-11-25T10:44:50.783Z,99462.00
2023-11-25T10:50:15.215Z,99463.00
2023-11-25T10:55:40.206Z,99462.00
2023-11-25T11:01:04.035Z,99460.00
2023-11-25T11:06:41.520Z,99467.00
2023-11-25T11:12:16.986Z,99462.00
2023-11-25T11:17:54.940Z,99456.00
2023-11-25T11:23:25.492Z,99455.00
2023-11-25T11:29:03.722Z,99465.00
2023-11-25T11:34:29.144Z,99465.00
2023-11-25T11:40:02.127Z,99474.00
2023-11-25T11:45:27.778Z,99459.00
2023-11-25T11:50:52.350Z,99470.00
2023-11-25T11:56:16.634Z,99467.00
2023-11-25T12:01:42.054Z,99471.00
2023-11-25T12:07:05.239Z,99476.00
2023-11-25T12:12:30.175Z,99483.00
2023-11-25T12:17:54.002Z,99486.00
2023-11-25T12:23:18.723Z,99484.00
2023-11-25T12:28:49.162Z,99492.00
2023-11-25T12:34:12.209Z,99491.00
2023-11-25T12:39:44.034Z,99493.00
2023-11-25T12:45:09.549Z,99490.00
2023-11-25T12:50:33.521Z,99492.00
2023-11-25T12:55:56.918Z,99499.00
2023-11-25T13:01:26.586Z,99516.00
2023-11-25T13:06:50.291Z,99516.00
2023-11-25T13:12:13.351Z,99528.00
2023-11-25T13:17:37.645Z,99522.00
2023-11-25T13:23:04.981Z,99518.00
2023-11-25T13:28:28.057Z,99530.00
2023-11-25T13:33:52.433Z,99538.00
2023-11-25T13:39:15.459Z,99535.00
2023-11-25T13:44:38.353Z,99544.00
2023-11-25T13:50:02.972Z,99549.00
2023-11-25T13:55:26.247Z,99556.00
2023-11-25T14:00:49.522Z,99551.00
2023-11-25T14:06:13.924Z,99560.00
2023-11-25T14:11:36.872Z,99552.00
2023-11-25T14:17:01.321Z,99553.00
2023-11-25T14:22:25.615Z,99571.00
2023-11-25T14:27:49.402Z,99569.00
2023-11-25T14:33:12.724Z,99576.00
2023-11-25T14:38:37.198Z,99577.00
2023-11-25T14:44:00.160Z,99588.00
2023-11-25T14:49:25.780Z,99589.00
2023-11-25T14:54:50.010Z,99575.00
2023-11-25T15:00:14.484Z,99587.00
2023-11-25T15:05:37.453Z,99590.00
2023-11-25T15:11:04.579Z,99593.00
2023-11-25T15:16:27.594Z,99594.00
2023-11-25T15:21:50.732Z,99595.00
2023-11-25T15:27:15.238Z,99606.00
2023-11-25T15:32:40.621Z,99607.00
2023-11-25T15:38:03.688Z,99613.00
2023-11-25T15:43:28.007Z,99613.00
2023-11-25T15:48:51.060Z,99623.00
2023-11-25T15:54:13.936Z,99641.00
2023-11-25T15:59:38.214Z,99643.00
2023-11-25T16:05:01.124Z,99650.00
2023-11-25T16:10:24.054Z,99657.00
2023-11-25T16:15:48.527Z,99654.00
2023-11-25T16:21:12.156Z,99663.00
2023-11-25T16:26:34.926Z,99662.00
2023-11-25T16:32:02.135Z,99674.00
2023-11-25T16:37:25.257Z,99669.00
2023-11-25T16:42:51.020Z,99682.00
2023-11-25T16:48:15.199Z,99686.00
2023-11-25T16:53:38.013Z,99691.00
2023-11-25T16:59:01.031Z,99702.00
2023-11-25T17:04:25.518Z,99701.00
2023-11-25T17:09:48.585Z,99697.00
2023-11-25T17:15:11.638Z,99711.00
2023-11-25T17:20:36.473Z,99714.00
2023-11-25T17:25:59.443Z,99734.00
2023-11-25T17:31:25.445Z,99717.00
2023-11-25T17:36:49.736Z,99733.00
2023-11-25T17:42:12.911Z,99723.00
2023-11-25T17:47:36.037Z,99739.00
2023-11-25T17:53:09.459Z,99749.00
2023-11-25T17:58:35.581Z,99756.00
2023-11-25T18:03:59.181Z,99759.00
2023-11-25T18:09:23.778Z,99757.00
2023-11-25T18:14:46.895Z,99756.00
2023-11-25T18:20:11.297Z,99760.00
2023-11-25T18:25:35.952Z,99760.00
2023-11-25T18:30:58.910Z,99761.00
2023-11-25T18:36:21.908Z,99777.00
2023-11-25T18:41:46.367Z,99766.00
2023-11-25T18:47:09.698Z,99776.00
2023-11-25T18:52:32.582Z,99781.00
2023-11-25T18:57:57.140Z,99784.00
2023-11-25T19:03:20.266Z,99790.00
2023-11-25T19:08:43.308Z,99795.00
2023-11-25T19:14:07.885Z,99792.00
2023-11-25T19:19:30.867Z,99801.00
2023-11-25T19:24:54.226Z,99805.00
2023-11-25T19:30:18.838Z,99807.00
2023-11-25T19:35:42.134Z,99820.00
2023-11-25T19:41:05.291Z,99821.00
2023-11-25T19:46:29.695Z,99826.00
2023-11-25T19:51:53.204Z,99840.00
2023-11-25T19:57:16.244Z,99836.00
2023-11-25T20:02:41.219Z,99840.00
2023-11-25T20:08:04.587Z,99848.00
2023-11-25T20:13:27.483Z,99873.00
2023-11-25T20:18:51.817Z,99871.00
2023-11-25T20:24:15.302Z,99877.00
2023-11-25T20:29:38.605Z,99874.00
2023-11-25T20:35:03.033Z,99882.00
2023-11-25T20:40:26.070Z,99886.00
2023-11-25T20:45:49.028Z,99889.00
2023-11-25T20:51:13.634Z,99913.00
2023-11-25T20:56:36.604Z,99904.00
2023-11-25T21:01:59.755Z,99917.00
2023-11-25T21:07:24.195Z,99909.00
2023-11-25T21:12:49.141Z,99921.00
2023-11-25T21:18:12.039Z,99927.00
2023-11-25T21:23:36.265Z,99946.00
2023-11-25T21:28:59.408Z,99942.00
2023-11-25T21:34:22.273Z,99943.00
2023-11-25T21:39:46.818Z,99948.00
2023-11-25T21:45:10.237Z,99935.00
2023-11-25T21:50:33.104Z,99943.00
2023-11-25T21:55:57.510Z,99952.00
2023-11-25T22:01:20.401Z,99952.00
2023-11-25T22:06:43.250Z,99965.00
2023-11-25T22:12:08.558Z,99957.00
2023-11-25T22:17:31.633Z,99949.00
2023-11-25T22:22:58.331Z,99965.00
2023-11-25T22:28:22.711Z,99963.00
2023-11-25T22:33:45.645Z,99975.00
2023-11-25T22:39:09.042Z,99972.00
2023-11-25T22:44:33.545Z,99961.00
2023-11-25T22:49:56.543Z,99968.00
2023-11-25T22:55:19.367Z,99965.00
2023-11-25T23:00:43.796Z,99971.00
2023-11-25T23:06:07.483Z,99972.00
2023-11-25T23:11:30.342Z,99976.00
2023-11-25T23:16:54.702Z,99969.00
2023-11-25T23:22:17.613Z,99969.00
2023-11-25T23:27:40.894Z,99985.00
2023-11-25T23:33:05.674Z,99977.00
2023-11-25T23:38:28.681Z,99980.00
2023-11-25T23:43:51.573Z,99982.00
2023-11-25T23:49:16.251Z,99984.00
2023-11-25T23:54:39.262Z,99993.00
